Saxon, Wisconsin
Current Conditions -  °F | °C
As of 8:15 PM on Sunday 25 Jan 2015 (Local Time) from KIWD Reporting Station
Clear Clear  
Wind Chill:   Ceiling: Unl
Heat Index:   Visibility: 10mi
Dew Point:   Wind: 3mph
Humidity: 92%   Direction: 110°ESE
Pressure: 29.98"   Gusts: NA
Location:  46.49°N, 90.41°W
Report Text: KIWD 260215Z AUTO 11003KT 10SM CLR M14/M15 A2998 RMK AO1
Loading
Personal Weather Stations






























Interactive Weather Map New forecast layout! Learn more

10-Day Weather Forecast

Advertisements
Track Severe Weather on mobile